Preston, Maryland
Current Conditions -  °F | °C
As of 6:50 AM on Monday 26 Jan 2015 (Local Time) from KESN Reporting Station
Light Snow Light Snow  
Wind Chill: 30°   Ceiling: 2600
Heat Index: 37°   Visibility: 10mi
Dew Point: 32°   Wind: 12mph
Humidity: 81%   Direction: 80°E
Pressure: 29.87"   Gusts: 25mph
Location:  38.71°N, 75.91°W
Report Text: KESN 261150Z 08010G22KT 10SM -SN SCT017 BKN026 OVC034 03/00 A2987
Loading
Personal Weather Stations






























Interactive Weather Map New forecast layout! Learn more

10-Day Weather Forecast

Advertisements
Track Severe Weather on mobile